KBFW

Silver Bay Municipal Airport

Silver Bay, Minnesota, USA
METAR KBFW 230913Z AUTO 02003KT 1SM SN OVC004 M06/M06 A3009 RMK AO2
Observed Flight Rules
Feb-23 @ 09:13 UTC (an hour ago) Instrument Flight Rules
Wind Visibility Clouds Conditions
20° at 3 knots 1 miles
  • Overcast at 400' AGL
  • Snow
Temperatures Readings
Current -6°C / 21°F
Dewpoint -6°C / 21°F
Humidity 100%
Altimeter 30.09" Hg
Pressure 1019 hPa
Elevation 331
METAR KBFW 230913Z AUTO 02003KT 1SM SN OVC004 M06/M06 A3009 RMK AO2
Observed Flight Rules
Feb-23 @ 09:13 UTC
(an hour ago)
LIFR
Wind Visibility
20° at 3 knots 1 miles
Clouds
  • Overcast at 400' AGL
Conditions
  • Snow
Temperature Dewpoint
-6°C / 21°F -6°C / 21°F
Humidity Altimeter Pressure
100% 30.09" Hg 1019 hPa